sensor_id;sensor_type;location;lat;lon;timestamp;temperature;humidity
26037;DHT22;13810;48.376;10.944;2023-02-28T00:00:01;-1.50;99.90
26037;DHT22;13810;48.376;10.944;2023-02-28T00:00:38;-1.50;99.90
26037;DHT22;13810;48.376;10.944;2023-02-28T00:01:10;-1.50;99.90
26037;DHT22;13810;48.376;10.944;2023-02-28T00:01:41;-1.50;99.90
26037;DHT22;13810;48.376;10.944;2023-02-28T00:02:11;-1.60;99.90
26037;DHT22;13810;48.376;10.944;2023-02-28T00:02:42;-1.50;99.90
26037;DHT22;13810;48.376;10.944;2023-02-28T00:03:13;-1.50;99.90
26037;DHT22;13810;48.376;10.944;2023-02-28T00:03:44;-1.50;99.90
26037;DHT22;13810;48.376;10.944;2023-02-28T00:04:14;-1.60;99.90
26037;DHT22;13810;48.376;10.944;2023-02-28T00:04:45;-1.50;99.90
26037;DHT22;13810;48.376;10.944;2023-02-28T00:05:17;-1.50;99.90
26037;DHT22;13810;48.376;10.944;2023-02-28T00:05:48;-1.60;99.90
26037;DHT22;13810;48.376;10.944;2023-02-28T00:06:18;-1.50;99.90
26037;DHT22;13810;48.376;10.944;2023-02-28T00:06:49;-1.60;99.90
26037;DHT22;13810;48.376;10.944;2023-02-28T00:07:19;-1.60;99.90
26037;DHT22;13810;48.376;10.944;2023-02-28T00:07:50;-1.60;99.90
26037;DHT22;13810;48.376;10.944;2023-02-28T00:08:21;-1.60;99.90
26037;DHT22;13810;48.376;10.944;2023-02-28T00:08:51;-1.60;99.90
26037;DHT22;13810;48.376;10.944;2023-02-28T00:09:22;-1.60;99.90
26037;DHT22;13810;48.376;10.944;2023-02-28T00:09:53;-1.60;99.90
26037;DHT22;13810;48.376;10.944;2023-02-28T00:10:25;-1.60;99.90
26037;DHT22;13810;48.376;10.944;2023-02-28T00:10:56;-1.60;99.90
26037;DHT22;13810;48.376;10.944;2023-02-28T00:11:26;-1.60;99.90
26037;DHT22;13810;48.376;10.944;2023-02-28T00:11:57;-1.60;99.90
26037;DHT22;13810;48.376;10.944;2023-02-28T00:12:28;-1.60;99.90
26037;DHT22;13810;48.376;10.944;2023-02-28T00:13:00;-1.60;99.90
26037;DHT22;13810;48.376;10.944;2023-02-28T00:13:31;-1.60;99.90
26037;DHT22;13810;48.376;10.944;2023-02-28T00:14:03;-1.60;99.90
26037;DHT22;13810;48.376;10.944;2023-02-28T00:14:34;-1.60;99.90
26037;DHT22;13810;48.376;10.944;2023-02-28T00:15:05;-1.60;99.90
26037;DHT22;13810;48.376;10.944;2023-02-28T00:15:36;-1.60;99.90
26037;DHT22;13810;48.376;10.944;2023-02-28T00:16:07;-1.60;99.90
26037;DHT22;13810;48.376;10.944;2023-02-28T00:16:39;-1.60;99.90
26037;DHT22;13810;48.376;10.944;2023-02-28T00:17:09;-1.60;99.90
26037;DHT22;13810;48.376;10.944;2023-02-28T00:17:40;-1.60;99.90
26037;DHT22;13810;48.376;10.944;2023-02-28T00:18:11;-1.60;99.90
26037;DHT22;13810;48.376;10.944;2023-02-28T00:18:42;-1.60;99.90
26037;DHT22;13810;48.376;10.944;2023-02-28T00:19:12;-1.60;99.90
26037;DHT22;13810;48.376;10.944;2023-02-28T00:19:43;-1.60;99.90
26037;DHT22;13810;48.376;10.944;2023-02-28T00:20:14;-1.60;99.90
26037;DHT22;13810;48.376;10.944;2023-02-28T00:20:45;-1.60;99.90
26037;DHT22;13810;48.376;10.944;2023-02-28T00:21:16;-1.60;99.90
26037;DHT22;13810;48.376;10.944;2023-02-28T00:21:47;-1.60;99.90
26037;DHT22;13810;48.376;10.944;2023-02-28T00:22:18;-1.60;99.90
26037;DHT22;13810;48.376;10.944;2023-02-28T00:22:50;-1.60;99.90
26037;DHT22;13810;48.376;10.944;2023-02-28T00:23:21;-1.60;99.90
26037;DHT22;13810;48.376;10.944;2023-02-28T00:23:51;-1.60;99.90
26037;DHT22;13810;48.376;10.944;2023-02-28T00:24:22;-1.60;99.90
26037;DHT22;13810;48.376;10.944;2023-02-28T00:24:52;-1.70;99.90
26037;DHT22;13810;48.376;10.944;2023-02-28T00:25:24;-1.60;99.90
26037;DHT22;13810;48.376;10.944;2023-02-28T00:25:55;-1.70;99.90
26037;DHT22;13810;48.376;10.944;2023-02-28T00:26:26;-1.70;99.90
26037;DHT22;13810;48.376;10.944;2023-02-28T00:26:56;-1.70;99.90
26037;DHT22;13810;48.376;10.944;2023-02-28T00:27:27;-1.70;99.90
26037;DHT22;13810;48.376;10.944;2023-02-28T00:27:57;-1.70;99.90
26037;DHT22;13810;48.376;10.944;2023-02-28T00:28:28;-1.70;99.90
26037;DHT22;13810;48.376;10.944;2023-02-28T00:28:58;-1.70;99.90
26037;DHT22;13810;48.376;10.944;2023-02-28T00:29:29;-1.70;99.90
26037;DHT22;13810;48.376;10.944;2023-02-28T00:29:59;-1.70;99.90
26037;DHT22;13810;48.376;10.944;2023-02-28T00:30:31;-1.70;99.90
26037;DHT22;13810;48.376;10.944;2023-02-28T00:31:02;-1.70;99.90
26037;DHT22;13810;48.376;10.944;2023-02-28T00:31:33;-1.70;99.90
26037;DHT22;13810;48.376;10.944;2023-02-28T00:32:03;-1.70;99.90
26037;DHT22;13810;48.376;10.944;2023-02-28T00:32:34;-1.70;99.90
26037;DHT22;13810;48.376;10.944;2023-02-28T00:33:05;-1.80;99.90
26037;DHT22;13810;48.376;10.944;2023-02-28T00:33:35;-1.80;99.90
26037;DHT22;13810;48.376;10.944;2023-02-28T00:34:06;-1.80;99.90
26037;DHT22;13810;48.376;10.944;2023-02-28T00:34:36;-1.80;99.90
26037;DHT22;13810;48.376;10.944;2023-02-28T00:35:08;-1.80;99.90
26037;DHT22;13810;48.376;10.944;2023-02-28T00:35:39;-1.80;99.90
26037;DHT22;13810;48.376;10.944;2023-02-28T00:36:10;-1.80;99.90
26037;DHT22;13810;48.376;10.944;2023-02-28T00:36:41;-1.80;99.90
26037;DHT22;13810;48.376;10.944;2023-02-28T00:37:15;-1.80;99.90
26037;DHT22;13810;48.376;10.944;2023-02-28T00:37:46;-1.80;99.90
26037;DHT22;13810;48.376;10.944;2023-02-28T00:38:18;-1.80;99.90
26037;DHT22;13810;48.376;10.944;2023-02-28T00:38:48;-1.80;99.90
26037;DHT22;13810;48.376;10.944;2023-02-28T00:39:19;-1.90;99.90
26037;DHT22;13810;48.376;10.944;2023-02-28T00:39:49;-1.90;99.90
26037;DHT22;13810;48.376;10.944;2023-02-28T00:40:20;-1.90;99.90
26037;DHT22;13810;48.376;10.944;2023-02-28T00:40:50;-1.90;99.90
26037;DHT22;13810;48.376;10.944;2023-02-28T00:41:21;-1.90;99.90
26037;DHT22;13810;48.376;10.944;2023-02-28T00:41:51;-1.90;99.90
26037;DHT22;13810;48.376;10.944;2023-02-28T00:42:22;-2.00;99.90
26037;DHT22;13810;48.376;10.944;2023-02-28T00:42:53;-1.90;99.90
26037;DHT22;13810;48.376;10.944;2023-02-28T00:43:24;-1.90;99.90
26037;DHT22;13810;48.376;10.944;2023-02-28T00:43:54;-2.00;99.90
26037;DHT22;13810;48.376;10.944;2023-02-28T00:44:25;-2.00;99.90
26037;DHT22;13810;48.376;10.944;2023-02-28T00:44:55;-2.00;99.90
26037;DHT22;13810;48.376;10.944;2023-02-28T00:45:26;-2.00;99.90
26037;DHT22;13810;48.376;10.944;2023-02-28T00:45:56;-2.00;99.90
26037;DHT22;13810;48.376;10.944;2023-02-28T00:46:27;-2.00;99.90
26037;DHT22;13810;48.376;10.944;2023-02-28T00:46:58;-2.00;99.90
26037;DHT22;13810;48.376;10.944;2023-02-28T00:47:28;-2.00;99.90
26037;DHT22;13810;48.376;10.944;2023-02-28T00:47:59;-2.00;99.90
26037;DHT22;13810;48.376;10.944;2023-02-28T00:48:30;-2.00;99.90
26037;DHT22;13810;48.376;10.944;2023-02-28T00:49:00;-2.00;99.90
26037;DHT22;13810;48.376;10.944;2023-02-28T00:49:31;-2.00;99.90
26037;DHT22;13810;48.376;10.944;2023-02-28T00:50:02;-2.10;99.90
26037;DHT22;13810;48.376;10.944;2023-02-28T00:50:32;-2.10;99.90
26037;DHT22;13810;48.376;10.944;2023-02-28T00:51:03;-2.10;99.90
26037;DHT22;13810;48.376;10.944;2023-02-28T00:51:34;-2.10;99.90
26037;DHT22;13810;48.376;10.944;2023-02-28T00:52:04;-2.10;99.90
26037;DHT22;13810;48.376;10.944;2023-02-28T00:52:35;-2.10;99.90
26037;DHT22;13810;48.376;10.944;2023-02-28T00:53:05;-2.10;99.90
26037;DHT22;13810;48.376;10.944;2023-02-28T00:53:36;-2.10;99.90
26037;DHT22;13810;48.376;10.944;2023-02-28T00:54:06;-2.10;99.90
26037;DHT22;13810;48.376;10.944;2023-02-28T00:54:37;-2.10;99.90
26037;DHT22;13810;48.376;10.944;2023-02-28T00:55:07;-2.10;99.90
26037;DHT22;13810;48.376;10.944;2023-02-28T00:55:38;-2.10;99.90
26037;DHT22;13810;48.376;10.944;2023-02-28T00:56:10;-2.10;99.90
26037;DHT22;13810;48.376;10.944;2023-02-28T00:56:40;-2.10;99.90
26037;DHT22;13810;48.376;10.944;2023-02-28T00:57:11;-2.10;99.90
26037;DHT22;13810;48.376;10.944;2023-02-28T00:57:41;-2.10;99.90
26037;DHT22;13810;48.376;10.944;2023-02-28T00:58:12;-2.10;99.90
26037;DHT22;13810;48.376;10.944;2023-02-28T00:58:42;-2.10;99.90
26037;DHT22;13810;48.376;10.944;2023-02-28T00:59:13;-2.10;99.90
26037;DHT22;13810;48.376;10.944;2023-02-28T00:59:44;-2.10;99.90
26037;DHT22;13810;48.376;10.944;2023-02-28T01:00:15;-2.10;99.90
26037;DHT22;13810;48.376;10.944;2023-02-28T01:00:45;-2.10;99.90
26037;DHT22;13810;48.376;10.944;2023-02-28T01:01:19;-2.10;99.90
26037;DHT22;13810;48.376;10.944;2023-02-28T01:01:49;-2.10;99.90
26037;DHT22;13810;48.376;10.944;2023-02-28T01:02:20;-2.20;99.90
26037;DHT22;13810;48.376;10.944;2023-02-28T01:02:51;-2.10;99.90
26037;DHT22;13810;48.376;10.944;2023-02-28T01:03:22;-2.10;99.90
26037;DHT22;13810;48.376;10.944;2023-02-28T01:03:53;-2.20;99.90
26037;DHT22;13810;48.376;10.944;2023-02-28T01:04:23;-2.20;99.90
26037;DHT22;13810;48.376;10.944;2023-02-28T01:04:54;-2.20;99.90
26037;DHT22;13810;48.376;10.944;2023-02-28T01:05:24;-2.20;99.90
26037;DHT22;13810;48.376;10.944;2023-02-28T01:05:55;-2.20;99.90
26037;DHT22;13810;48.376;10.944;2023-02-28T01:06:25;-2.20;99.90
26037;DHT22;13810;48.376;10.944;2023-02-28T01:06:56;-2.20;99.90
26037;DHT22;13810;48.376;10.944;2023-02-28T01:07:26;-2.20;99.90
26037;DHT22;13810;48.376;10.944;2023-02-28T01:07:57;-2.20;99.90
26037;DHT22;13810;48.376;10.944;2023-02-28T01:08:27;-2.20;99.90
26037;DHT22;13810;48.376;10.944;2023-02-28T01:08:58;-2.20;99.90
26037;DHT22;13810;48.376;10.944;2023-02-28T01:09:29;-2.20;99.90
26037;DHT22;13810;48.376;10.944;2023-02-28T01:09:59;-2.30;99.90
26037;DHT22;13810;48.376;10.944;2023-02-28T01:10:30;-2.30;99.90
26037;DHT22;13810;48.376;10.944;2023-02-28T01:11:08;-2.30;99.90
26037;DHT22;13810;48.376;10.944;2023-02-28T01:11:39;-2.30;99.90
26037;DHT22;13810;48.376;10.944;2023-02-28T01:12:11;-2.30;99.90
26037;DHT22;13810;48.376;10.944;2023-02-28T01:12:42;-2.30;99.90
26037;DHT22;13810;48.376;10.944;2023-02-28T01:13:13;-2.30;99.90
26037;DHT22;13810;48.376;10.944;2023-02-28T01:13:44;-2.30;99.90
26037;DHT22;13810;48.376;10.944;2023-02-28T01:14:15;-2.30;99.90
26037;DHT22;13810;48.376;10.944;2023-02-28T01:14:47;-2.20;99.90
26037;DHT22;13810;48.376;10.944;2023-02-28T01:15:17;-2.20;99.90
26037;DHT22;13810;48.376;10.944;2023-02-28T01:15:51;-2.20;99.90
26037;DHT22;13810;48.376;10.944;2023-02-28T01:16:23;-2.20;99.90
26037;DHT22;13810;48.376;10.944;2023-02-28T01:16:53;-2.20;99.90
26037;DHT22;13810;48.376;10.944;2023-02-28T01:17:24;-2.20;99.90
26037;DHT22;13810;48.376;10.944;2023-02-28T01:17:54;-2.20;99.90
26037;DHT22;13810;48.376;10.944;2023-02-28T01:18:25;-2.20;99.90
26037;DHT22;13810;48.376;10.944;2023-02-28T01:18:55;-2.20;99.90
26037;DHT22;13810;48.376;10.944;2023-02-28T01:19:26;-2.20;99.90
26037;DHT22;13810;48.376;10.944;2023-02-28T01:19:56;-2.20;99.90
26037;DHT22;13810;48.376;10.944;2023-02-28T01:20:27;-2.20;99.90
26037;DHT22;13810;48.376;10.944;2023-02-28T01:20:58;-2.20;99.90
26037;DHT22;13810;48.376;10.944;2023-02-28T01:21:28;-2.20;99.90
26037;DHT22;13810;48.376;10.944;2023-02-28T01:22:00;-2.20;99.90
26037;DHT22;13810;48.376;10.944;2023-02-28T01:22:31;-2.20;99.90
26037;DHT22;13810;48.376;10.944;2023-02-28T01:23:01;-2.20;99.90
26037;DHT22;13810;48.376;10.944;2023-02-28T01:23:32;-2.20;99.90
26037;DHT22;13810;48.376;10.944;2023-02-28T01:24:03;-2.20;99.90
26037;DHT22;13810;48.376;10.944;2023-02-28T01:24:34;-2.20;99.90
26037;DHT22;13810;48.376;10.944;2023-02-28T01:25:05;-2.20;99.90
26037;DHT22;13810;48.376;10.944;2023-02-28T01:25:35;-2.20;99.90
26037;DHT22;13810;48.376;10.944;2023-02-28T01:26:36;-2.20;99.90
26037;DHT22;13810;48.376;10.944;2023-02-28T01:27:07;-2.20;99.90
26037;DHT22;13810;48.376;10.944;2023-02-28T01:27:37;-2.20;99.90
26037;DHT22;13810;48.376;10.944;2023-02-28T01:28:09;-2.20;99.90
26037;DHT22;13810;48.376;10.944;2023-02-28T01:28:40;-2.20;99.90
26037;DHT22;13810;48.376;10.944;2023-02-28T01:29:11;-2.20;99.90
26037;DHT22;13810;48.376;10.944;2023-02-28T01:29:41;-2.20;99.90
26037;DHT22;13810;48.376;10.944;2023-02-28T01:30:12;-2.20;99.90
26037;DHT22;13810;48.376;10.944;2023-02-28T01:30:42;-2.20;99.90
26037;DHT22;13810;48.376;10.944;2023-02-28T01:31:13;-2.20;99.90
26037;DHT22;13810;48.376;10.944;2023-02-28T01:31:43;-2.20;99.90
26037;DHT22;13810;48.376;10.944;2023-02-28T01:32:14;-2.20;99.90
26037;DHT22;13810;48.376;10.944;2023-02-28T01:32:44;-2.20;99.90
26037;DHT22;13810;48.376;10.944;2023-02-28T01:33:15;-2.20;99.90
26037;DHT22;13810;48.376;10.944;2023-02-28T01:33:46;-2.20;99.90
26037;DHT22;13810;48.376;10.944;2023-02-28T01:34:16;-2.20;99.90
26037;DHT22;13810;48.376;10.944;2023-02-28T01:34:49;-2.20;99.90
26037;DHT22;13810;48.376;10.944;2023-02-28T01:35:20;-2.20;99.90
26037;DHT22;13810;48.376;10.944;2023-02-28T01:35:57;-2.20;99.90
26037;DHT22;13810;48.376;10.944;2023-02-28T01:36:27;-2.20;99.90
26037;DHT22;13810;48.376;10.944;2023-02-28T01:36:58;-2.20;99.90
26037;DHT22;13810;48.376;10.944;2023-02-28T01:37:29;-2.20;99.90
26037;DHT22;13810;48.376;10.944;2023-02-28T01:37:59;-2.20;99.90
26037;DHT22;13810;48.376;10.944;2023-02-28T01:38:30;-2.20;99.90
26037;DHT22;13810;48.376;10.944;2023-02-28T01:39:01;-2.20;99.90
26037;DHT22;13810;48.376;10.944;2023-02-28T01:39:31;-2.20;99.90
26037;DHT22;13810;48.376;10.944;2023-02-28T01:40:02;-2.20;99.90
26037;DHT22;13810;48.376;10.944;2023-02-28T01:40:33;-2.20;99.90
26037;DHT22;13810;48.376;10.944;2023-02-28T01:41:04;-2.20;99.90
26037;DHT22;13810;48.376;10.944;2023-02-28T01:41:34;-2.20;99.90
26037;DHT22;13810;48.376;10.944;2023-02-28T01:42:05;-2.30;99.90
26037;DHT22;13810;48.376;10.944;2023-02-28T01:42:36;-2.20;99.90
26037;DHT22;13810;48.376;10.944;2023-02-28T01:43:25;-2.30;99.90
26037;DHT22;13810;48.376;10.944;2023-02-28T01:44:06;-2.20;99.90
26037;DHT22;13810;48.376;10.944;2023-02-28T01:45:30;-2.30;99.90
26037;DHT22;13810;48.376;10.944;2023-02-28T01:46:01;-2.30;99.90
26037;DHT22;13810;48.376;10.944;2023-02-28T01:46:32;-2.30;99.90
26037;DHT22;13810;48.376;10.944;2023-02-28T01:47:03;-2.30;99.90
26037;DHT22;13810;48.376;10.944;2023-02-28T01:47:38;-2.30;99.90
26037;DHT22;13810;48.376;10.944;2023-02-28T01:48:10;-2.30;99.90
26037;DHT22;13810;48.376;10.944;2023-02-28T01:48:53;-2.30;99.90
26037;DHT22;13810;48.376;10.944;2023-02-28T01:49:24;-2.30;99.90
26037;DHT22;13810;48.376;10.944;2023-02-28T01:49:55;-2.30;99.90
26037;DHT22;13810;48.376;10.944;2023-02-28T01:50:27;-2.30;99.90
26037;DHT22;13810;48.376;10.944;2023-02-28T01:50:59;-2.30;99.90
26037;DHT22;13810;48.376;10.944;2023-02-28T01:51:37;-2.30;99.90
26037;DHT22;13810;48.376;10.944;2023-02-28T01:52:09;-2.30;99.90
26037;DHT22;13810;48.376;10.944;2023-02-28T01:52:48;-2.40;99.90
26037;DHT22;13810;48.376;10.944;2023-02-28T01:53:21;-2.40;99.90
26037;DHT22;13810;48.376;10.944;2023-02-28T01:53:56;-2.30;99.90
26037;DHT22;13810;48.376;10.944;2023-02-28T01:54:28;-2.40;99.90
26037;DHT22;13810;48.376;10.944;2023-02-28T01:55:00;-2.30;99.90
26037;DHT22;13810;48.376;10.944;2023-02-28T01:55:31;-2.30;99.90
26037;DHT22;13810;48.376;10.944;2023-02-28T01:56:06;-2.30;99.90
26037;DHT22;13810;48.376;10.944;2023-02-28T01:56:37;-2.30;99.90
26037;DHT22;13810;48.376;10.944;2023-02-28T01:57:10;-2.40;99.90
26037;DHT22;13810;48.376;10.944;2023-02-28T01:57:49;-2.30;99.90
26037;DHT22;13810;48.376;10.944;2023-02-28T01:58:21;-2.30;99.90
26037;DHT22;13810;48.376;10.944;2023-02-28T01:58:51;-2.30;99.90
26037;DHT22;13810;48.376;10.944;2023-02-28T01:59:32;-2.30;99.90
26037;DHT22;13810;48.376;10.944;2023-02-28T02:00:11;-2.30;99.90
26037;DHT22;13810;48.376;10.944;2023-02-28T02:00:43;-2.30;99.90
26037;DHT22;13810;48.376;10.944;2023-02-28T02:01:14;-2.40;99.90
26037;DHT22;13810;48.376;10.944;2023-02-28T02:01:51;-2.40;99.90
26037;DHT22;13810;48.376;10.944;2023-02-28T02:02:23;-2.40;99.90
26037;DHT22;13810;48.376;10.944;2023-02-28T02:02:55;-2.40;99.90
26037;DHT22;13810;48.376;10.944;2023-02-28T02:03:27;-2.40;99.90
26037;DHT22;13810;48.376;10.944;2023-02-28T02:03:58;-2.40;99.90
26037;DHT22;13810;48.376;10.944;2023-02-28T02:04:32;-2.40;99.90
26037;DHT22;13810;48.376;10.944;2023-02-28T02:05:12;-2.40;99.90
26037;DHT22;13810;48.376;10.944;2023-02-28T02:05:44;-2.40;99.90
26037;DHT22;13810;48.376;10.944;2023-02-28T02:06:17;-2.40;99.90
26037;DHT22;13810;48.376;10.944;2023-02-28T02:06:48;-2.40;99.90
26037;DHT22;13810;48.376;10.944;2023-02-28T02:07:20;-2.40;99.90
26037;DHT22;13810;48.376;10.944;2023-02-28T02:07:57;-2.40;99.90
26037;DHT22;13810;48.376;10.944;2023-02-28T02:08:28;-2.40;99.90
26037;DHT22;13810;48.376;10.944;2023-02-28T02:08:59;-2.40;99.90
26037;DHT22;13810;48.376;10.944;2023-02-28T02:09:29;-2.40;99.90
26037;DHT22;13810;48.376;10.944;2023-02-28T02:10:02;-2.40;99.90
26037;DHT22;13810;48.376;10.944;2023-02-28T02:10:34;-2.40;99.90
26037;DHT22;13810;48.376;10.944;2023-02-28T02:11:05;-2.40;99.90
26037;DHT22;13810;48.376;10.944;2023-02-28T02:11:36;-2.40;99.90
26037;DHT22;13810;48.376;10.944;2023-02-28T02:12:11;-2.40;99.90
26037;DHT22;13810;48.376;10.944;2023-02-28T02:15:06;-2.40;99.90
26037;DHT22;13810;48.376;10.944;2023-02-28T02:17:36;-2.40;99.90
26037;DHT22;13810;48.376;10.944;2023-02-28T02:18:46;-2.40;99.90
26037;DHT22;13810;48.376;10.944;2023-02-28T02:25:52;-2.40;99.90
26037;DHT22;13810;48.376;10.944;2023-02-28T02:28:37;-2.50;99.90
26037;DHT22;13810;48.376;10.944;2023-02-28T02:29:19;-2.50;99.90
26037;DHT22;13810;48.376;10.944;2023-02-28T02:32:09;-2.40;99.90
26037;DHT22;13810;48.376;10.944;2023-02-28T02:32:57;-2.50;99.90
26037;DHT22;13810;48.376;10.944;2023-02-28T02:34:18;-2.40;99.90
26037;DHT22;13810;48.376;10.944;2023-02-28T02:37:09;-2.40;99.90
26037;DHT22;13810;48.376;10.944;2023-02-28T02:38:27;-2.40;99.90
26037;DHT22;13810;48.376;10.944;2023-02-28T02:38:36;-2.40;99.90
26037;DHT22;13810;48.376;10.944;2023-02-28T02:39:25;-2.40;99.90
26037;DHT22;13810;48.376;10.944;2023-02-28T02:40:08;-2.40;99.90
26037;DHT22;13810;48.376;10.944;2023-02-28T02:41:44;-2.40;99.90
26037;DHT22;13810;48.376;10.944;2023-02-28T02:42:20;-2.40;99.90
26037;DHT22;13810;48.376;10.944;2023-02-28T02:42:55;-2.40;99.90
26037;DHT22;13810;48.376;10.944;2023-02-28T02:43:31;-2.40;99.90
26037;DHT22;13810;48.376;10.944;2023-02-28T02:44:21;-2.40;99.90
26037;DHT22;13810;48.376;10.944;2023-02-28T02:45:00;-2.40;99.90
26037;DHT22;13810;48.376;10.944;2023-02-28T02:45:38;-2.40;99.90
26037;DHT22;13810;48.376;10.944;2023-02-28T02:46:12;-2.40;99.90
26037;DHT22;13810;48.376;10.944;2023-02-28T02:46:44;-2.40;99.90
26037;DHT22;13810;48.376;10.944;2023-02-28T02:47:16;-2.40;99.90
26037;DHT22;13810;48.376;10.944;2023-02-28T02:47:48;-2.40;99.90
26037;DHT22;13810;48.376;10.944;2023-02-28T02:48:20;-2.40;99.90
26037;DHT22;13810;48.376;10.944;2023-02-28T02:48:51;-2.40;99.90
26037;DHT22;13810;48.376;10.944;2023-02-28T02:49:29;-2.30;99.90
26037;DHT22;13810;48.376;10.944;2023-02-28T02:50:02;-2.40;99.90
26037;DHT22;13810;48.376;10.944;2023-02-28T02:50:36;-2.30;99.90
26037;DHT22;13810;48.376;10.944;2023-02-28T02:51:10;-2.40;99.90
26037;DHT22;13810;48.376;10.944;2023-02-28T02:51:42;-2.40;99.90
26037;DHT22;13810;48.376;10.944;2023-02-28T02:52:14;-2.40;99.90
26037;DHT22;13810;48.376;10.944;2023-02-28T02:52:46;-2.40;99.90
26037;DHT22;13810;48.376;10.944;2023-02-28T02:53:21;-2.40;99.90
26037;DHT22;13810;48.376;10.944;2023-02-28T02:53:54;-2.40;99.90
26037;DHT22;13810;48.376;10.944;2023-02-28T02:54:30;-2.30;99.90
26037;DHT22;13810;48.376;10.944;2023-02-28T02:55:01;-2.30;99.90
26037;DHT22;13810;48.376;10.944;2023-02-28T02:55:34;-2.30;99.90
26037;DHT22;13810;48.376;10.944;2023-02-28T02:56:06;-2.30;99.90
26037;DHT22;13810;48.376;10.944;2023-02-28T02:56:38;-2.30;99.90
26037;DHT22;13810;48.376;10.944;2023-02-28T02:57:10;-2.30;99.90
26037;DHT22;13810;48.376;10.944;2023-02-28T02:57:47;-2.30;99.90
26037;DHT22;13810;48.376;10.944;2023-02-28T02:58:19;-2.30;99.90
26037;DHT22;13810;48.376;10.944;2023-02-28T02:58:50;-2.30;99.90
26037;DHT22;13810;48.376;10.944;2023-02-28T02:59:22;-2.20;99.90
26037;DHT22;13810;48.376;10.944;2023-02-28T02:59:54;-2.30;99.90
26037;DHT22;13810;48.376;10.944;2023-02-28T03:00:30;-2.30;99.90
26037;DHT22;13810;48.376;10.944;2023-02-28T03:01:01;-2.30;99.90
26037;DHT22;13810;48.376;10.944;2023-02-28T03:01:33;-2.30;99.90
26037;DHT22;13810;48.376;10.944;2023-02-28T03:02:06;-2.30;99.90
26037;DHT22;13810;48.376;10.944;2023-02-28T03:02:37;-2.30;99.90
26037;DHT22;13810;48.376;10.944;2023-02-28T03:03:08;-2.30;99.90
26037;DHT22;13810;48.376;10.944;2023-02-28T03:03:40;-2.20;99.90
26037;DHT22;13810;48.376;10.944;2023-02-28T03:04:12;-2.20;99.90
26037;DHT22;13810;48.376;10.944;2023-02-28T03:04:48;-2.20;99.90
26037;DHT22;13810;48.376;10.944;2023-02-28T03:05:23;-2.20;99.90
26037;DHT22;13810;48.376;10.944;2023-02-28T03:05:54;-2.20;99.90
26037;DHT22;13810;48.376;10.944;2023-02-28T03:06:25;-2.20;99.90
26037;DHT22;13810;48.376;10.944;2023-02-28T03:06:56;-2.20;99.90
26037;DHT22;13810;48.376;10.944;2023-02-28T03:07:27;-2.30;99.90
26037;DHT22;13810;48.376;10.944;2023-02-28T03:07:57;-2.30;99.90
26037;DHT22;13810;48.376;10.944;2023-02-28T03:08:29;-2.20;99.90
26037;DHT22;13810;48.376;10.944;2023-02-28T03:09:00;-2.20;99.90
26037;DHT22;13810;48.376;10.944;2023-02-28T03:09:32;-2.30;99.90
26037;DHT22;13810;48.376;10.944;2023-02-28T03:10:03;-2.20;99.90
26037;DHT22;13810;48.376;10.944;2023-02-28T03:10:57;-2.20;99.90
26037;DHT22;13810;48.376;10.944;2023-02-28T03:11:29;-2.30;99.90
26037;DHT22;13810;48.376;10.944;2023-02-28T03:11:59;-2.20;99.90
26037;DHT22;13810;48.376;10.944;2023-02-28T03:12:40;-2.20;99.90
26037;DHT22;13810;48.376;10.944;2023-02-28T03:15:26;-2.20;99.90
26037;DHT22;13810;48.376;10.944;2023-02-28T03:17:30;-2.20;99.90
26037;DHT22;13810;48.376;10.944;2023-02-28T03:18:08;-2.20;99.90
26037;DHT22;13810;48.376;10.944;2023-02-28T03:18:43;-2.20;99.90
26037;DHT22;13810;48.376;10.944;2023-02-28T03:24:04;-2.20;99.90
26037;DHT22;13810;48.376;10.944;2023-02-28T03:26:55;-2.20;99.90
26037;DHT22;13810;48.376;10.944;2023-02-28T03:27:34;-2.20;99.90
26037;DHT22;13810;48.376;10.944;2023-02-28T03:29:16;-2.20;99.90
26037;DHT22;13810;48.376;10.944;2023-02-28T03:29:53;-2.20;99.90
26037;DHT22;13810;48.376;10.944;2023-02-28T03:30:39;-2.20;99.90
26037;DHT22;13810;48.376;10.944;2023-02-28T03:31:16;-2.10;99.90
26037;DHT22;13810;48.376;10.944;2023-02-28T03:31:58;-2.10;99.90
26037;DHT22;13810;48.376;10.944;2023-02-28T03:32:33;-2.10;99.90
26037;DHT22;13810;48.376;10.944;2023-02-28T03:33:36;-2.10;99.90
26037;DHT22;13810;48.376;10.944;2023-02-28T03:34:39;-2.10;99.90
26037;DHT22;13810;48.376;10.944;2023-02-28T03:35:21;-2.20;99.90
26037;DHT22;13810;48.376;10.944;2023-02-28T03:36:00;-2.20;99.90
26037;DHT22;13810;48.376;10.944;2023-02-28T03:36:33;-2.10;99.90
26037;DHT22;13810;48.376;10.944;2023-02-28T03:37:13;-2.10;99.90
26037;DHT22;13810;48.376;10.944;2023-02-28T03:37:45;-2.20;99.90
26037;DHT22;13810;48.376;10.944;2023-02-28T03:38:18;-2.10;99.90
26037;DHT22;13810;48.376;10.944;2023-02-28T03:38:51;-2.10;99.90
26037;DHT22;13810;48.376;10.944;2023-02-28T03:39:24;-2.10;99.90
26037;DHT22;13810;48.376;10.944;2023-02-28T03:39:59;-2.10;99.90
26037;DHT22;13810;48.376;10.944;2023-02-28T03:40:32;-2.10;99.90
26037;DHT22;13810;48.376;10.944;2023-02-28T03:41:08;-2.10;99.90
26037;DHT22;13810;48.376;10.944;2023-02-28T03:41:45;-2.10;99.90
26037;DHT22;13810;48.376;10.944;2023-02-28T03:42:23;-2.10;99.90
26037;DHT22;13810;48.376;10.944;2023-02-28T03:42:56;-2.10;99.90
26037;DHT22;13810;48.376;10.944;2023-02-28T03:43:29;-2.10;99.90
26037;DHT22;13810;48.376;10.944;2023-02-28T03:44:04;-2.10;99.90
26037;DHT22;13810;48.376;10.944;2023-02-28T03:44:39;-2.10;99.90
26037;DHT22;13810;48.376;10.944;2023-02-28T03:45:15;-2.10;99.90
26037;DHT22;13810;48.376;10.944;2023-02-28T03:45:46;-2.10;99.90
26037;DHT22;13810;48.376;10.944;2023-02-28T03:46:19;-2.10;99.90
26037;DHT22;13810;48.376;10.944;2023-02-28T03:46:53;-2.10;99.90
26037;DHT22;13810;48.376;10.944;2023-02-28T03:48:03;-2.10;99.90
26037;DHT22;13810;48.376;10.944;2023-02-28T03:48:41;-2.10;99.90
26037;DHT22;13810;48.376;10.944;2023-02-28T03:49:17;-2.10;99.90
26037;DHT22;13810;48.376;10.944;2023-02-28T03:50:22;-2.10;99.90
26037;DHT22;13810;48.376;10.944;2023-02-28T03:50:55;-2.10;99.90
26037;DHT22;13810;48.376;10.944;2023-02-28T03:51:28;-2.10;99.90
26037;DHT22;13810;48.376;10.944;2023-02-28T03:51:59;-2.10;99.90
26037;DHT22;13810;48.376;10.944;2023-02-28T03:52:32;-2.10;99.90
26037;DHT22;13810;48.376;10.944;2023-02-28T03:53:05;-2.10;99.90
26037;DHT22;13810;48.376;10.944;2023-02-28T03:53:39;-2.10;99.90
26037;DHT22;13810;48.376;10.944;2023-02-28T03:54:13;-2.10;99.90
26037;DHT22;13810;48.376;10.944;2023-02-28T03:54:48;-2.10;99.90
26037;DHT22;13810;48.376;10.944;2023-02-28T03:55:20;-2.10;99.90
26037;DHT22;13810;48.376;10.944;2023-02-28T03:55:59;-2.10;99.90
26037;DHT22;13810;48.376;10.944;2023-02-28T03:56:33;-2.10;99.90
26037;DHT22;13810;48.376;10.944;2023-02-28T03:59:25;-2.10;99.90
26037;DHT22;13810;48.376;10.944;2023-02-28T04:00:03;-2.00;99.90